Time;durP1;ratioP1;P1;durP2;ratioP2;P2;SDS_P1;SDS_P2;PMS_P1;PMS_P2;Temp;Humidity;BMP_temperature;BMP_pressure;BME280_temperature;BME280_humidity;BME280_pressure;Samples;Min_cycle;Max_cycle;Signal;HPM_P1;HPM_P2
2022/09/22 00:01:27;;;;;;;4.17;1.33;;;10.80;85.90;;;;;;5056980;28;20059;-78
2022/09/22 00:04:05;;;;;;;5.27;1.13;;;10.70;86.10;;;;;;5074745;28;20028;-78
2022/09/22 00:06:38;;;;;;;3.57;1.00;;;10.70;86.20;;;;;;5074514;28;20078;-78
2022/09/22 00:09:08;;;;;;;7.00;1.17;;;10.70;86.40;;;;;;5073188;28;20085;-78
2022/09/22 00:11:39;;;;;;;4.63;1.30;;;10.70;86.50;;;;;;5073075;28;20063;-79
2022/09/22 00:14:19;;;;;;;3.77;1.30;;;10.60;86.60;;;;;;5073408;28;20023;-78
2022/09/22 00:16:49;;;;;;;3.80;1.10;;;10.60;86.80;;;;;;5073920;28;20103;-78
2022/09/22 00:19:30;;;;;;;4.77;1.43;;;10.60;86.80;;;;;;5073224;28;20406;-78
2022/09/22 00:21:56;;;;;;;4.67;1.10;;;10.60;87.00;;;;;;5072999;28;20111;-79
2022/09/22 00:24:25;;;;;;;4.13;1.20;;;10.60;87.10;;;;;;5056236;28;20108;-79
2022/09/22 00:26:55;;;;;;;4.13;0.90;;;10.50;87.20;;;;;;5073109;28;20040;-78
2022/09/22 00:29:22;;;;;;;2.53;1.03;;;10.50;87.30;;;;;;5072939;28;20452;-79
2022/09/22 00:31:48;;;;;;;3.77;1.00;;;10.50;87.50;;;;;;5072683;28;20535;-78
2022/09/22 00:34:22;;;;;;;3.07;1.50;;;10.60;87.70;;;;;;5079634;28;20059;-79
2022/09/22 00:36:48;;;;;;;5.28;1.17;;;10.50;87.80;;;;;;5089393;28;20020;-78
2022/09/22 00:39:17;;;;;;;4.37;1.50;;;10.40;87.90;;;;;;5073766;28;20036;-79
2022/09/22 00:41:49;;;;;;;4.40;1.13;;;10.40;88.00;;;;;;5055824;28;20048;-79
2022/09/22 00:44:34;;;;;;;3.97;0.97;;;10.20;88.10;;;;;;5088993;28;20020;-79
2022/09/22 00:47:12;;;;;;;4.97;1.63;;;10.30;88.40;;;;;;5071502;28;20016;-78
2022/09/22 00:49:55;;;;;;;5.10;1.03;;;10.30;88.60;;;;;;5072085;28;20490;-77
2022/09/22 00:52:37;;;;;;;4.47;0.80;;;10.30;88.80;;;;;;5086417;28;20074;-78
2022/09/22 00:55:10;;;;;;;2.93;0.90;;;10.20;88.90;;;;;;5073490;28;20021;-78
2022/09/22 00:57:39;;;;;;;2.40;0.90;;;10.30;89.10;;;;;;5071670;28;20144;-78
2022/09/22 01:00:07;;;;;;;3.47;1.23;;;10.30;89.20;;;;;;5072381;28;20055;-78
2022/09/22 01:02:33;;;;;;;2.50;0.90;;;10.20;90.00;;;;;;5072154;28;20020;-78
2022/09/22 01:04:59;;;;;;;3.47;1.17;;;10.20;89.50;;;;;;5072239;28;20452;-78
2022/09/22 01:07:28;;;;;;;2.63;0.93;;;10.20;89.70;;;;;;5055597;28;20020;-78
2022/09/22 01:09:54;;;;;;;2.97;1.00;;;10.10;89.90;;;;;;5071965;28;20037;-78
2022/09/22 01:12:22;;;;;;;3.67;1.10;;;10.20;90.00;;;;;;5071729;28;20028;-78
2022/09/22 01:15:02;;;;;;;2.33;1.00;;;10.10;90.10;;;;;;5072446;28;20412;-78
2022/09/22 01:17:50;;;;;;;3.60;0.93;;;10.10;90.10;;;;;;5072294;28;20464;-78
2022/09/22 01:20:40;;;;;;;4.57;1.40;;;10.10;90.10;;;;;;5075281;28;20100;-78
2022/09/22 01:23:33;;;;;;;2.47;0.90;;;10.10;90.20;;;;;;5103733;28;20013;-78
2022/09/22 01:26:02;;;;;;;5.40;1.37;;;10.00;90.10;;;;;;5072886;28;20020;-79
2022/09/22 01:28:50;;;;;;;6.27;1.17;;;10.10;90.20;;;;;;5071185;28;20111;-78
2022/09/22 01:31:22;;;;;;;4.57;1.00;;;10.00;90.20;;;;;;5073019;28;20469;-78
2022/09/22 01:33:50;;;;;;;6.07;1.67;;;10.00;90.30;;;;;;5072048;28;20372;-78
2022/09/22 01:36:34;;;;;;;6.03;1.53;;;10.00;90.40;;;;;;5071789;28;20028;-78
2022/09/22 01:39:11;;;;;;;3.20;1.17;;;10.00;90.50;;;;;;5071747;28;20028;-78
2022/09/22 01:41:58;;;;;;;3.43;1.17;;;9.90;90.50;;;;;;5071567;28;20016;-78
2022/09/22 01:44:46;;;;;;;4.07;1.40;;;9.90;90.60;;;;;;5071857;28;20026;-78
2022/09/22 01:47:20;;;;;;;4.17;1.40;;;9.90;90.70;;;;;;5072056;28;20027;-79
2022/09/22 01:50:00;;;;;;;3.10;1.07;;;9.90;90.70;;;;;;5073025;28;20024;-78
2022/09/22 01:52:29;;;;;;;2.93;1.20;;;9.90;90.80;;;;;;5073213;28;20081;-78
2022/09/22 01:55:14;;;;;;;4.40;1.23;;;9.80;90.80;;;;;;5073221;28;20082;-78
2022/09/22 01:57:57;;;;;;;4.97;2.15;;;9.80;90.90;;;;;;5073052;28;20013;-78
2022/09/22 02:00:23;;;;;;;3.33;1.13;;;9.90;91.00;;;;;;5072016;28;20024;-78
2022/09/22 02:03:05;;;;;;;3.27;1.23;;;9.80;91.10;;;;;;5071585;28;20025;-78
2022/09/22 02:05:55;;;;;;;6.77;1.70;;;9.80;91.10;;;;;;5072894;28;20535;-78
2022/09/22 02:08:31;;;;;;;5.67;1.67;;;9.80;91.20;;;;;;5071589;28;20029;-78
2022/09/22 02:11:02;;;;;;;3.07;1.33;;;9.80;91.20;;;;;;5082648;28;20036;-78
2022/09/22 02:13:28;;;;;;;5.77;1.60;;;9.70;91.20;;;;;;5073113;28;20052;-78
2022/09/22 02:15:59;;;;;;;5.20;1.60;;;9.70;91.20;;;;;;5071386;28;20075;-78
2022/09/22 02:18:42;;;;;;;5.63;2.20;;;9.70;91.30;;;;;;5070560;28;20020;-78
2022/09/22 02:21:09;;;;;;;7.27;1.50;;;9.70;91.30;;;;;;5086733;28;20538;-78
2022/09/22 02:23:34;;;;;;;5.90;2.00;;;9.60;91.40;;;;;;5071520;28;20020;-78
2022/09/22 02:26:02;;;;;;;3.93;1.70;;;9.60;91.50;;;;;;5071104;28;20036;-77
2022/09/22 02:28:31;;;;;;;5.47;2.10;;;9.60;91.50;;;;;;5072837;28;20380;-78
2022/09/22 02:30:59;;;;;;;5.87;1.77;;;9.60;91.70;;;;;;5072452;28;20076;-78
2022/09/22 02:33:27;;;;;;;4.57;1.77;;;9.60;91.70;;;;;;5073053;28;20028;-78
2022/09/22 02:36:05;;;;;;;4.70;1.67;;;9.50;91.80;;;;;;5071734;28;20086;-78
2022/09/22 02:38:56;;;;;;;3.77;1.73;;;9.60;91.90;;;;;;5072595;28;20043;-79
2022/09/22 02:41:46;;;;;;;3.67;1.77;;;9.50;92.00;;;;;;5075465;28;20024;-78
2022/09/22 02:44:30;;;;;;;4.33;1.73;;;9.50;92.00;;;;;;5076317;28;20092;-78
2022/09/22 02:47:02;;;;;;;3.60;1.57;;;9.50;92.10;;;;;;5075056;28;20407;-78
2022/09/22 02:49:29;;;;;;;3.20;1.67;;;9.50;92.20;;;;;;5076397;28;20017;-78
2022/09/22 02:51:55;;;;;;;4.93;1.63;;;9.50;92.20;;;;;;5058020;28;20131;-78
2022/09/22 02:54:21;;;;;;;6.10;1.97;;;9.40;92.20;;;;;;5058189;28;20067;-78
2022/09/22 02:56:47;;;;;;;4.37;1.90;;;9.40;92.30;;;;;;5074792;28;20487;-78
2022/09/22 02:59:13;;;;;;;4.27;1.90;;;9.40;92.40;;;;;;5057923;28;20024;-78
2022/09/22 03:01:38;;;;;;;6.13;2.37;;;9.40;92.50;;;;;;5074862;28;20036;-78
2022/09/22 03:04:04;;;;;;;3.70;2.03;;;9.40;92.50;;;;;;5057847;28;20028;-78
2022/09/22 03:06:30;;;;;;;3.80;1.83;;;9.40;92.60;;;;;;5074460;28;20060;-78
2022/09/22 03:08:56;;;;;;;7.67;2.37;;;9.40;92.70;;;;;;5076027;28;20017;-78
2022/09/22 03:11:22;;;;;;;7.83;2.50;;;9.40;92.80;;;;;;5040966;28;20387;-78
2022/09/22 03:13:47;;;;;;;4.23;1.83;;;9.50;93.00;;;;;;5085667;28;20042;-78
2022/09/22 03:16:13;;;;;;;6.73;3.13;;;9.40;93.00;;;;;;5090875;28;20107;-78
2022/09/22 03:18:39;;;;;;;6.90;2.47;;;9.40;93.10;;;;;;5057078;28;20025;-78
2022/09/22 03:21:04;;;;;;;6.47;2.27;;;9.30;93.20;;;;;;5040369;28;20326;-78
2022/09/22 03:23:30;;;;;;;8.77;2.83;;;9.30;93.20;;;;;;5057631;28;20052;-78
2022/09/22 03:25:56;;;;;;;4.80;2.70;;;9.30;93.30;;;;;;5074333;28;20127;-78
2022/09/22 03:28:21;;;;;;;5.40;2.20;;;9.40;93.40;;;;;;5074091;28;20036;-78
2022/09/22 03:30:47;;;;;;;6.53;2.77;;;9.30;93.50;;;;;;5057278;28;20087;-78
2022/09/22 03:33:13;;;;;;;5.53;2.53;;;9.30;93.50;;;;;;5056885;28;20372;-78
2022/09/22 03:35:38;;;;;;;9.53;3.40;;;9.30;93.60;;;;;;5077690;28;20126;-79
2022/09/22 03:38:04;;;;;;;7.93;3.47;;;9.30;93.60;;;;;;5056364;28;20025;-78
2022/09/22 03:40:30;;;;;;;9.63;3.03;;;9.20;93.70;;;;;;5094115;28;20028;-78
2022/09/22 03:42:56;;;;;;;6.07;3.37;;;9.20;93.70;;;;;;5076315;28;20016;-78
2022/09/22 03:45:21;;;;;;;8.37;3.63;;;9.20;93.80;;;;;;5093764;28;20043;-78
2022/09/22 03:47:47;;;;;;;8.33;3.17;;;9.20;93.90;;;;;;5077078;28;20024;-77
2022/09/22 03:50:13;;;;;;;9.73;3.63;;;9.20;94.00;;;;;;5093989;28;20477;-78
2022/09/22 03:52:41;;;;;;;8.47;3.93;;;9.20;94.00;;;;;;5093424;28;20067;-78
2022/09/22 03:55:08;;;;;;;8.27;3.17;;;9.20;94.10;;;;;;5092222;28;20035;-78
2022/09/22 03:57:33;;;;;;;6.20;3.23;;;9.10;94.10;;;;;;5075050;28;20020;-77
2022/09/22 03:59:59;;;;;;;9.70;3.30;;;9.10;94.10;;;;;;5072036;28;20261;-78
2022/09/22 04:02:25;;;;;;;7.33;3.57;;;9.10;94.20;;;;;;5071879;28;20021;-77
2022/09/22 04:04:50;;;;;;;7.23;3.47;;;9.10;94.20;;;;;;5072384;28;20115;-77
2022/09/22 04:07:16;;;;;;;8.53;3.90;;;9.00;94.30;;;;;;5056476;28;20020;-76
2022/09/22 04:09:41;;;;;;;10.43;3.70;;;9.10;94.30;;;;;;5073180;28;20482;-77
2022/09/22 04:12:07;;;;;;;8.50;3.80;;;9.10;94.40;;;;;;5056120;28;20029;-78
2022/09/22 04:14:33;;;;;;;8.77;3.90;;;9.00;94.40;;;;;;5072847;28;20445;-78
2022/09/22 04:16:59;;;;;;;7.73;3.50;;;9.10;94.40;;;;;;5073272;28;20119;-78
2022/09/22 04:19:24;;;;;;;7.10;3.93;;;9.10;94.50;;;;;;5073171;28;20399;-78
2022/09/22 04:21:50;;;;;;;8.53;4.07;;;9.10;94.50;;;;;;5056316;28;20508;-78
2022/09/22 04:24:16;;;;;;;8.40;4.17;;;9.10;94.40;;;;;;5074360;28;20107;-78
2022/09/22 04:26:43;;;;;;;9.60;4.10;;;9.10;94.50;;;;;;5073122;28;20027;-78
2022/09/22 04:29:08;;;;;;;7.53;4.37;;;9.00;94.40;;;;;;5073999;28;20025;-78
2022/09/22 04:31:34;;;;;;;8.30;3.90;;;9.00;94.40;;;;;;5055808;28;20060;-78
2022/09/22 04:33:59;;;;;;;7.23;3.90;;;9.00;94.50;;;;;;5072357;28;20056;-78
2022/09/22 04:36:25;;;;;;;10.37;4.40;;;9.00;94.50;;;;;;5056346;28;20016;-78
2022/09/22 04:38:51;;;;;;;7.50;4.07;;;9.00;94.80;;;;;;5072920;28;20093;-77
2022/09/22 04:41:16;;;;;;;13.47;5.13;;;8.90;94.50;;;;;;5072263;28;20537;-78
2022/09/22 04:43:42;;;;;;;8.93;4.53;;;8.90;94.60;;;;;;5072703;28;20024;-78
2022/09/22 04:46:08;;;;;;;9.97;5.10;;;9.00;94.60;;;;;;5079015;28;20383;-78
2022/09/22 04:48:33;;;;;;;11.57;5.03;;;8.90;94.60;;;;;;5082392;28;20115;-78
2022/09/22 04:50:59;;;;;;;8.00;5.07;;;8.90;94.60;;;;;;5073883;28;20041;-78
2022/09/22 04:53:25;;;;;;;11.23;5.43;;;8.90;94.60;;;;;;5055615;28;20024;-78
2022/09/22 04:55:50;;;;;;;9.23;4.97;;;8.90;94.70;;;;;;5072548;28;20029;-78
2022/09/22 04:58:16;;;;;;;10.97;5.10;;;8.90;94.70;;;;;;5072312;28;20020;-78
2022/09/22 05:00:42;;;;;;;14.53;6.03;;;8.90;94.70;;;;;;5072408;28;20465;-78
2022/09/22 05:03:09;;;;;;;9.13;5.47;;;8.90;94.70;;;;;;5072919;28;20027;-78
2022/09/22 05:05:35;;;;;;;10.47;5.53;;;8.90;94.70;;;;;;5073484;28;20536;-78
2022/09/22 05:08:01;;;;;;;8.83;5.63;;;8.90;94.80;;;;;;5072197;28;20032;-78
2022/09/22 05:10:30;;;;;;;12.17;6.30;;;8.80;94.70;;;;;;5055686;28;20054;-78
2022/09/22 05:12:57;;;;;;;9.90;6.30;;;8.80;95.00;;;;;;5040010;28;20067;-78
2022/09/22 05:15:23;;;;;;;9.80;5.50;;;8.80;94.80;;;;;;5072261;28;20025;-78
2022/09/22 05:17:51;;;;;;;12.07;6.13;;;8.80;94.80;;;;;;5073294;28;20027;-78
2022/09/22 05:20:18;;;;;;;10.83;6.13;;;8.80;94.80;;;;;;5071842;28;20070;-78
2022/09/22 05:22:44;;;;;;;10.10;6.20;;;8.80;94.90;;;;;;5072121;28;20052;-78
2022/09/22 05:25:12;;;;;;;18.93;6.30;;;8.80;94.90;;;;;;5071971;28;20028;-79
2022/09/22 05:27:56;;;;;;;11.03;6.13;;;8.80;94.90;;;;;;5073155;28;20461;-78
2022/09/22 05:30:24;;;;;;;9.40;6.53;;;8.80;94.90;;;;;;5071804;28;20040;-78
2022/09/22 05:32:51;;;;;;;14.50;6.30;;;8.70;94.90;;;;;;5055271;28;20342;-78
2022/09/22 05:35:20;;;;;;;11.80;6.67;;;8.80;95.00;;;;;;5072972;28;20020;-78
2022/09/22 05:37:47;;;;;;;13.53;6.93;;;8.80;95.00;;;;;;5079763;28;20052;-78
2022/09/22 05:40:14;;;;;;;10.87;7.17;;;8.80;95.10;;;;;;5079608;28;20100;-78
2022/09/22 05:42:43;;;;;;;13.47;6.97;;;8.80;95.10;;;;;;5073948;28;20025;-79
2022/09/22 05:45:12;;;;;;;10.53;6.33;;;8.80;95.20;;;;;;5076801;28;20044;-79
2022/09/22 05:47:39;;;;;;;13.20;7.63;;;8.80;95.20;;;;;;5073931;28;20030;-79
2022/09/22 05:50:06;;;;;;;12.90;7.27;;;8.90;95.20;;;;;;5073301;28;20029;-78
2022/09/22 05:52:34;;;;;;;13.83;7.93;;;8.80;95.30;;;;;;5054503;28;20025;-79
2022/09/22 05:55:10;;;;;;;12.17;8.10;;;8.80;95.30;;;;;;5073107;28;20441;-78
2022/09/22 05:57:38;;;;;;;13.90;7.60;;;8.90;95.30;;;;;;5054135;28;20025;-78
2022/09/22 06:00:08;;;;;;;11.60;7.00;;;8.90;95.40;;;;;;5072218;28;20023;-78
2022/09/22 06:02:34;;;;;;;14.43;7.53;;;8.90;95.40;;;;;;5073057;28;20024;-78
2022/09/22 06:05:00;;;;;;;12.53;7.47;;;9.00;95.40;;;;;;5073520;28;20107;-78
2022/09/22 06:07:26;;;;;;;14.97;7.93;;;9.00;95.50;;;;;;5053632;28;20056;-78
2022/09/22 06:09:52;;;;;;;11.23;7.23;;;9.00;95.50;;;;;;5070212;28;20536;-78
2022/09/22 06:12:18;;;;;;;19.20;8.37;;;9.10;95.60;;;;;;5062185;28;20116;-78
2022/09/22 06:14:43;;;;;;;14.60;8.07;;;9.10;95.60;;;;;;5075475;28;20107;-78
2022/09/22 06:17:10;;;;;;;14.47;7.53;;;9.10;95.60;;;;;;5075035;28;20115;-79
2022/09/22 06:19:37;;;;;;;11.33;7.17;;;9.10;95.70;;;;;;5082894;28;20460;-78
2022/09/22 06:22:02;;;;;;;16.57;7.83;;;9.20;95.70;;;;;;5085667;28;20020;-79
2022/09/22 06:24:28;;;;;;;13.80;7.97;;;9.20;95.70;;;;;;5066537;28;20104;-79
2022/09/22 06:26:54;;;;;;;14.27;7.50;;;9.20;95.70;;;;;;5084611;28;20052;-79
2022/09/22 06:29:20;;;;;;;11.60;8.00;;;9.20;95.70;;;;;;5071011;28;20052;-79
2022/09/22 06:31:47;;;;;;;14.33;8.53;;;9.30;95.80;;;;;;5085244;28;20392;-78
2022/09/22 06:34:13;;;;;;;13.37;7.93;;;9.30;95.80;;;;;;5085585;28;20031;-79
2022/09/22 06:36:41;;;;;;;18.40;8.90;;;9.40;95.80;;;;;;5084988;28;20377;-79
2022/09/22 06:39:06;;;;;;;14.77;7.30;;;9.40;95.80;;;;;;5085507;28;20016;-79
2022/09/22 06:41:32;;;;;;;16.03;8.23;;;9.50;95.90;;;;;;5084233;28;20020;-78
2022/09/22 06:43:58;;;;;;;17.17;8.50;;;9.50;95.90;;;;;;5069752;28;20376;-79
2022/09/22 06:46:26;;;;;;;14.57;7.50;;;9.50;96.00;;;;;;5068992;28;20016;-78
2022/09/22 06:48:56;;;;;;;13.50;7.97;;;9.60;96.00;;;;;;5085369;28;20031;-76
2022/09/22 06:51:32;;;;;;;14.10;8.57;;;9.70;96.10;;;;;;5094515;28;20047;-78
2022/09/22 06:53:59;;;;;;;18.10;9.50;;;9.70;96.10;;;;;;5082380;28;20025;-81
2022/09/22 06:56:26;;;;;;;18.47;8.57;;;9.70;96.10;;;;;;5063089;28;20234;-79
2022/09/22 06:58:54;;;;;;;11.60;8.30;;;9.80;96.10;;;;;;5091405;28;20032;-79
2022/09/22 07:01:22;;;;;;;14.67;8.23;;;9.90;96.10;;;;;;5074328;28;20469;-80
2022/09/22 07:03:48;;;;;;;13.27;7.57;;;9.90;96.10;;;;;;5075605;28;20024;-77
2022/09/22 07:06:16;;;;;;;14.37;9.20;;;10.00;96.20;;;;;;5074249;28;20465;-79
2022/09/22 07:08:43;;;;;;;16.33;8.97;;;10.10;96.20;;;;;;5074175;28;20423;-79
2022/09/22 07:11:09;;;;;;;16.53;8.80;;;10.10;96.20;;;;;;5079601;28;20074;-81
2022/09/22 07:13:37;;;;;;;15.80;9.40;;;10.10;96.30;;;;;;5088796;28;20020;-81
2022/09/22 07:16:15;;;;;;;14.30;8.17;;;10.10;96.30;;;;;;5079133;28;20486;-77
2022/09/22 07:18:43;;;;;;;14.83;9.37;;;10.20;96.30;;;;;;5094354;28;20104;-78
2022/09/22 07:21:14;;;;;;;13.00;8.47;;;10.30;96.40;;;;;;5069410;28;20416;-77
2022/09/22 07:23:40;;;;;;;15.57;8.83;;;10.30;96.40;;;;;;5075440;28;20029;-77
2022/09/22 07:26:12;;;;;;;13.40;8.70;;;10.40;96.40;;;;;;5077760;28;20020;-77
2022/09/22 07:28:38;;;;;;;13.87;9.70;;;10.50;96.40;;;;;;5085927;28;20016;-76
2022/09/22 07:31:09;;;;;;;12.67;8.73;;;10.50;96.40;;;;;;5093542;28;20055;-76
2022/09/22 07:33:37;;;;;;;11.57;8.23;;;10.60;96.40;;;;;;5093535;28;20016;-79
2022/09/22 07:36:12;;;;;;;13.57;8.63;;;10.60;96.30;;;;;;5095813;28;20115;-77
2022/09/22 07:38:39;;;;;;;11.37;7.83;;;10.70;96.30;;;;;;5094456;28;20023;-77
2022/09/22 07:41:11;;;;;;;12.40;8.43;;;10.80;96.20;;;;;;5076910;28;20032;-78
2022/09/22 07:43:38;;;;;;;15.07;8.93;;;10.80;96.20;;;;;;5095055;28;20028;-77
2022/09/22 07:46:04;;;;;;;13.73;8.37;;;10.90;96.10;;;;;;5077153;28;20027;-77
2022/09/22 07:48:36;;;;;;;11.53;7.37;;;11.00;96.10;;;;;;5085986;28;20064;-77
2022/09/22 07:51:20;;;;;;;12.63;7.73;;;11.00;96.10;;;;;;5081727;28;20044;-76
2022/09/22 07:54:03;;;;;;;13.82;8.27;;;11.10;96.10;;;;;;5074746;28;20028;-78
2022/09/22 07:56:29;;;;;;;12.57;8.00;;;11.10;96.00;;;;;;5077479;28;20051;-77
2022/09/22 07:58:55;;;;;;;14.98;8.23;;;11.20;96.00;;;;;;5065552;28;20028;-76
2022/09/22 08:01:23;;;;;;;12.27;7.55;;;11.20;96.00;;;;;;5059322;28;20021;-77
2022/09/22 08:03:49;;;;;;;11.57;7.50;;;11.30;96.00;;;;;;5074802;28;20052;-78
2022/09/22 08:06:17;;;;;;;11.95;7.55;;;11.40;96.10;;;;;;5073059;28;20115;-77
2022/09/22 08:08:45;;;;;;;13.98;7.13;;;11.40;96.00;;;;;;5074167;28;20056;-77
2022/09/22 08:11:14;;;;;;;14.50;6.97;;;11.50;96.00;;;;;;5073762;28;20119;-77
2022/09/22 08:13:52;;;;;;;11.68;6.90;;;11.60;96.00;;;;;;5074638;28;20130;-77
2022/09/22 08:16:18;;;;;;;12.98;7.65;;;11.60;95.90;;;;;;5074204;28;20024;-77
2022/09/22 08:18:57;;;;;;;15.25;7.88;;;11.70;95.90;;;;;;5072903;28;20023;-78
2022/09/22 08:21:24;;;;;;;12.02;7.30;;;11.70;95.80;;;;;;5074122;28;20035;-77
2022/09/22 08:23:51;;;;;;;10.60;7.07;;;11.80;95.70;;;;;;5072522;28;20032;-78
2022/09/22 08:26:18;;;;;;;13.25;7.40;;;11.90;95.70;;;;;;5072616;28;20024;-78
2022/09/22 08:28:45;;;;;;;16.67;8.13;;;12.00;95.70;;;;;;5072154;28;20025;-78
2022/09/22 08:31:12;;;;;;;12.50;6.80;;;12.00;95.60;;;;;;5073451;28;20059;-79
2022/09/22 08:33:39;;;;;;;10.93;6.85;;;12.10;95.50;;;;;;5071413;28;20111;-79
2022/09/22 08:36:06;;;;;;;10.88;6.90;;;12.20;95.50;;;;;;5077569;28;20031;-78
2022/09/22 08:38:36;;;;;;;16.05;7.13;;;12.30;95.30;;;;;;5066422;28;20016;-78
2022/09/22 08:41:21;;;;;;;15.43;7.32;;;12.30;95.20;;;;;;5083622;28;20387;-78
2022/09/22 08:43:57;;;;;;;10.73;6.75;;;12.40;95.10;;;;;;5088781;28;20028;-78
2022/09/22 08:46:33;;;;;;;9.50;6.00;;;12.50;95.00;;;;;;5072419;28;20103;-78
2022/09/22 08:52:40;;;;;;;9.57;5.57;;;12.70;94.80;;;;;;5073248;28;20388;-78
2022/09/22 08:55:18;;;;;;;9.30;5.43;;;12.80;94.50;;;;;;5084365;28;20024;-79
2022/09/22 08:57:43;;;;;;;10.52;5.68;;;12.90;94.40;;;;;;5083348;28;20055;-77
2022/09/22 09:00:13;;;;;;;11.43;5.90;;;13.00;94.30;;;;;;5086173;28;20528;-78
2022/09/22 09:02:43;;;;;;;9.23;5.55;;;13.10;94.20;;;;;;5081200;28;20016;-77
2022/09/22 09:05:46;;;;;;;8.77;5.60;;;13.20;94.10;;;;;;5088621;28;20360;-78
2022/09/22 09:08:55;;;;;;;10.82;5.50;;;13.30;94.00;;;;;;5093518;28;20024;-78
2022/09/22 09:11:53;;;;;;;8.80;5.78;;;13.40;93.90;;;;;;5086526;28;20040;-78
2022/09/22 09:14:29;;;;;;;7.70;4.60;;;13.60;93.90;;;;;;5072297;28;20033;-78
2022/09/22 09:17:05;;;;;;;9.45;5.43;;;13.60;93.80;;;;;;5073584;28;20020;-78
2022/09/22 09:19:41;;;;;;;11.63;4.95;;;13.70;93.70;;;;;;5071514;28;20070;-77
2022/09/22 09:22:34;;;;;;;11.73;5.20;;;13.90;93.60;;;;;;5072183;28;20460;-78
2022/09/22 09:25:08;;;;;;;8.70;3.72;;;14.00;93.30;;;;;;5071769;28;20115;-78
2022/09/22 09:27:39;;;;;;;7.00;4.18;;;14.10;93.20;;;;;;5071990;28;20468;-79
2022/09/22 09:30:13;;;;;;;8.63;3.80;;;14.20;93.00;;;;;;5071973;28;20029;-78
2022/09/22 09:33:11;;;;;;;7.50;3.85;;;14.30;92.70;;;;;;5071218;28;20044;-78
2022/09/22 09:35:52;;;;;;;7.82;3.80;;;14.40;92.40;;;;;;5072424;28;20025;-78
2022/09/22 09:38:29;;;;;;;12.13;3.85;;;14.50;92.20;;;;;;5059394;28;20111;-77
2022/09/22 09:41:09;;;;;;;8.68;3.35;;;14.60;92.00;;;;;;5071526;28;20445;-77
2022/09/22 09:43:36;;;;;;;8.85;2.67;;;14.70;91.40;;;;;;5069189;28;20028;-78
2022/09/22 09:46:20;;;;;;;8.63;2.80;;;14.80;90.90;;;;;;5084516;28;20031;-78
2022/09/22 09:49:04;;;;;;;7.30;2.47;;;14.90;90.70;;;;;;5091899;28;20020;-77
2022/09/22 09:51:36;;;;;;;6.55;2.33;;;15.10;90.40;;;;;;5095110;28;20043;-77
2022/09/22 09:54:05;;;;;;;7.53;2.45;;;15.30;90.00;;;;;;5097000;28;20024;-78
2022/09/22 09:56:32;;;;;;;8.10;2.33;;;15.50;89.00;;;;;;5096865;28;20032;-78
2022/09/22 10:01:52;;;;;;;7.68;2.38;;;16.20;87.00;;;;;;5096973;28;20035;-78
2022/09/22 10:04:38;;;;;;;5.43;1.83;;;16.80;86.60;;;;;;5095669;28;20026;-78
2022/09/22 10:07:14;;;;;;;8.13;2.47;;;17.40;86.00;;;;;;5086980;28;20025;-84
2022/09/22 10:09:40;;;;;;;2.90;1.08;;;18.10;85.80;;;;;;5088948;28;20069;-85
2022/09/22 10:12:22;;;;;;;6.78;1.55;;;18.90;85.60;;;;;;5074229;28;20553;-84
2022/09/22 10:14:50;;;;;;;3.25;1.13;;;19.90;82.00;;;;;;5083920;28;20024;-84
2022/09/22 10:17:28;;;;;;;4.75;1.50;;;20.70;81.80;;;;;;5083617;28;20012;-85
2022/09/22 10:20:15;;;;;;;3.88;1.10;;;21.70;79.30;;;;;;5084972;28;20047;-85
2022/09/22 10:22:44;;;;;;;5.60;1.23;;;22.70;74.30;;;;;;5086477;28;20372;-85
2022/09/22 10:25:23;;;;;;;4.35;1.15;;;23.50;72.30;;;;;;5078889;28;20137;-85
2022/09/22 10:28:11;;;;;;;6.00;1.40;;;24.30;68.00;;;;;;5097303;28;20027;-85
2022/09/22 10:30:38;;;;;;;6.03;1.23;;;25.10;65.50;;;;;;5095280;28;20058;-85
2022/09/22 10:33:22;;;;;;;4.85;1.50;;;25.70;63.40;;;;;;5095634;28;20367;-85
2022/09/22 10:36:07;;;;;;;4.95;1.25;;;26.30;59.40;;;;;;5096644;28;20016;-85
2022/09/22 10:38:38;;;;;;;5.05;1.65;;;26.90;56.80;;;;;;5095203;28;20019;-86
2022/09/22 10:41:11;;;;;;;3.63;1.20;;;27.50;56.50;;;;;;5096362;28;20387;-86
2022/09/22 10:43:52;;;;;;;4.65;1.35;;;27.90;54.80;;;;;;5095045;28;20024;-86
2022/09/22 10:46:31;;;;;;;6.25;1.30;;;28.40;53.20;;;;;;5095259;28;20023;-87
2022/09/22 10:49:30;;;;;;;3.50;1.15;;;28.90;52.20;;;;;;5094589;28;20456;-87
2022/09/22 10:52:04;;;;;;;5.43;1.13;;;29.40;50.30;;;;;;5090605;28;20024;-87
2022/09/22 10:54:54;;;;;;;4.40;1.30;;;29.80;48.10;;;;;;5093525;28;20028;-86
2022/09/22 10:57:25;;;;;;;3.65;1.00;;;30.00;47.10;;;;;;5075703;28;20575;-85
2022/09/22 11:00:16;;;;;;;3.72;0.95;;;30.30;46.80;;;;;;5074351;28;20039;-85
2022/09/22 11:03:09;;;;;;;2.85;1.00;;;30.60;45.00;;;;;;5073955;28;20063;-85
2022/09/22 11:12:38;;;;;;;2.13;0.50;;;31.60;43.20;;;;;;5094604;28;20115;-86
2022/09/22 11:15:44;;;;;;;4.45;0.77;;;31.90;41.90;;;;;;5013983;28;20049;-83
2022/09/22 11:18:28;;;;;;;1.95;0.50;;;32.10;40.40;;;;;;5032990;28;20021;-82
2022/09/22 11:21:00;;;;;;;2.05;0.50;;;32.20;40.90;;;;;;5081397;28;20044;-83
2022/09/22 11:23:59;;;;;;;1.47;0.67;;;32.40;39.50;;;;;;5081780;28;20356;-82
2022/09/22 11:27:00;;;;;;;1.27;0.40;;;32.60;37.80;;;;;;5092030;28;20035;-85
2022/09/22 11:29:48;;;;;;;1.38;0.50;;;32.80;38.60;;;;;;5050281;28;20024;-83
2022/09/22 11:32:33;;;;;;;2.50;0.50;;;33.20;37.40;;;;;;5094009;28;20119;-84
2022/09/22 11:35:26;;;;;;;2.88;0.50;;;33.30;36.40;;;;;;5091621;28;20028;-83
2022/09/22 11:38:12;;;;;;;1.23;0.50;;;33.50;35.60;;;;;;5073828;28;20099;-84
2022/09/22 11:40:38;;;;;;;3.17;0.63;;;33.60;35.40;;;;;;5075015;28;20029;-84
2022/09/22 11:43:18;;;;;;;1.70;0.65;;;33.80;35.30;;;;;;5073387;28;20023;-83
2022/09/22 11:46:07;;;;;;;2.65;0.80;;;33.80;35.20;;;;;;5073807;28;20115;-83
2022/09/22 11:48:49;;;;;;;2.53;0.57;;;33.90;34.70;;;;;;5085641;28;20418;-83
2022/09/22 11:51:25;;;;;;;1.75;0.60;;;34.10;34.40;;;;;;5095168;28;20402;-88
2022/09/22 11:54:20;;;;;;;3.50;0.82;;;34.20;34.40;;;;;;5094103;28;20491;-87
2022/09/22 11:56:54;;;;;;;2.42;0.80;;;34.10;33.80;;;;;;5086658;28;20044;-83
2022/09/22 11:59:49;;;;;;;1.77;0.52;;;33.80;34.30;;;;;;5073024;28;20021;-85
2022/09/22 12:02:49;;;;;;;6.63;0.63;;;33.60;33.80;;;;;;5071261;28;20119;-83
2022/09/22 12:05:34;;;;;;;2.05;0.50;;;33.30;34.10;;;;;;5072208;28;20036;-86
2022/09/22 12:08:27;;;;;;;2.53;0.60;;;33.40;34.30;;;;;;5074167;28;20027;-84
2022/09/22 12:10:54;;;;;;;2.60;0.50;;;33.40;33.40;;;;;;5064450;28;20119;-85
2022/09/22 12:13:28;;;;;;;5.15;0.45;;;33.30;33.50;;;;;;5056368;28;20024;-85
2022/09/22 12:16:12;;;;;;;2.75;0.77;;;32.90;33.10;;;;;;5073104;28;20034;-85
2022/09/22 12:18:47;;;;;;;1.58;0.60;;;32.70;33.30;;;;;;5073204;28;20038;-86
2022/09/22 12:21:42;;;;;;;1.40;0.52;;;32.80;33.70;;;;;;5072815;28;20472;-85
2022/09/22 12:24:10;;;;;;;3.83;0.80;;;33.10;33.70;;;;;;5072860;28;20028;-84
2022/09/22 12:26:37;;;;;;;2.03;0.50;;;33.40;33.20;;;;;;5072760;28;20044;-85
2022/09/22 12:29:28;;;;;;;2.47;0.60;;;33.70;33.30;;;;;;5072451;28;20021;-85
2022/09/22 12:31:58;;;;;;;2.83;0.60;;;34.00;32.40;;;;;;5072407;28;20046;-85
2022/09/22 12:34:38;;;;;;;1.92;0.50;;;34.00;32.70;;;;;;5073762;28;20021;-85
2022/09/22 12:37:36;;;;;;;3.45;0.82;;;34.00;32.60;;;;;;5072377;28;20403;-84
2022/09/22 12:40:22;;;;;;;2.17;0.60;;;34.30;32.20;;;;;;5057198;28;20028;-85
2022/09/22 12:42:51;;;;;;;2.00;0.77;;;34.50;32.50;;;;;;5073936;28;20534;-84
2022/09/22 12:45:26;;;;;;;4.75;0.70;;;34.60;32.60;;;;;;5080532;28;20022;-84
2022/09/22 12:47:55;;;;;;;4.90;0.70;;;34.40;31.60;;;;;;5081652;28;20012;-84
2022/09/22 12:50:41;;;;;;;3.28;0.90;;;33.70;31.90;;;;;;5082677;28;20030;-84
2022/09/22 12:53:27;;;;;;;1.85;0.63;;;33.30;32.40;;;;;;5076030;28;20052;-84
2022/09/22 12:55:54;;;;;;;2.13;0.70;;;33.40;32.50;;;;;;5072884;28;20484;-85
2022/09/22 12:58:21;;;;;;;2.00;0.68;;;33.60;32.40;;;;;;5073732;28;20056;-84
2022/09/22 13:00:48;;;;;;;4.75;0.85;;;33.80;32.40;;;;;;5081293;28;20027;-85
2022/09/22 13:03:26;;;;;;;1.60;0.65;;;34.00;32.30;;;;;;5090884;28;20012;-85
2022/09/22 13:06:03;;;;;;;3.22;0.80;;;34.30;32.10;;;;;;5076567;28;20120;-85
2022/09/22 13:08:31;;;;;;;1.98;0.70;;;34.40;32.10;;;;;;5071705;28;20031;-82
2022/09/22 13:11:08;;;;;;;2.42;0.80;;;34.40;32.10;;;;;;5073054;28;20042;-85
2022/09/22 13:13:36;;;;;;;2.40;0.70;;;34.60;32.10;;;;;;5073084;28;20017;-83
2022/09/22 13:16:17;;;;;;;2.72;0.70;;;34.90;31.80;;;;;;5072309;28;20017;-84
2022/09/22 13:18:52;;;;;;;1.30;0.60;;;35.10;31.70;;;;;;5072997;28;20020;-83
2022/09/22 13:21:22;;;;;;;2.20;0.80;;;35.20;31.40;;;;;;5071410;28;20036;-84
2022/09/22 13:23:57;;;;;;;1.83;0.80;;;35.10;31.10;;;;;;5055168;28;20021;-86
2022/09/22 13:26:26;;;;;;;3.15;0.80;;;35.20;31.00;;;;;;5071328;28;20723;-85
2022/09/22 13:29:09;;;;;;;1.95;0.60;;;35.20;30.90;;;;;;5071666;28;20468;-84
2022/09/22 13:31:39;;;;;;;;;;;35.00;30.80;;;;;;5071711;28;20040;-86